Time;durP1;ratioP1;P1;durP2;ratioP2;P2;SDS_P1;SDS_P2;PMS_P1;PMS_P2;Temp;Humidity;BMP_temperature;BMP_pressure;BME280_temperature;BME280_humidity;BME280_pressure;Samples;Min_cycle;Max_cycle;Signal;HPM_P1;HPM_P2
2022/04/09 00:02:06;;;;;;;20.13;4.10;;;6.90;99.90;;;;;;6245788;23;20071;-76
2022/04/09 00:04:32;;;;;;;14.60;3.92;;;7.00;99.90;;;;;;6244353;23;20418;-76
2022/04/09 00:06:58;;;;;;;16.05;3.45;;;6.90;99.90;;;;;;6246090;23;19996;-76
2022/04/09 00:09:23;;;;;;;12.77;3.28;;;6.90;99.90;;;;;;6246928;23;20322;-76
2022/04/09 00:11:49;;;;;;;17.98;4.40;;;6.90;99.90;;;;;;6244401;23;20012;-76
2022/04/09 00:14:15;;;;;;;17.77;4.00;;;6.80;99.90;;;;;;6245894;23;20032;-76
2022/04/09 00:16:41;;;;;;;16.30;3.42;;;6.90;99.90;;;;;;6243839;22;20000;-76
2022/04/09 00:19:07;;;;;;;12.82;3.25;;;6.80;99.90;;;;;;6245590;23;20307;-76
2022/04/09 00:21:34;;;;;;;16.63;4.28;;;6.80;99.90;;;;;;6245089;22;20075;-76
2022/04/09 00:24:00;;;;;;;12.60;2.97;;;6.80;99.90;;;;;;6243987;22;20361;-76
2022/04/09 00:26:25;;;;;;;16.52;3.78;;;6.70;99.90;;;;;;6246022;23;19996;-76
2022/04/09 00:28:51;;;;;;;15.23;3.72;;;6.80;99.90;;;;;;6243988;23;20036;-76
2022/04/09 00:31:16;;;;;;;14.80;3.80;;;6.70;99.90;;;;;;6243970;23;20004;-75
2022/04/09 00:33:42;;;;;;;25.17;4.22;;;6.80;99.90;;;;;;6244118;23;20004;-76
2022/04/09 00:36:07;;;;;;;15.75;3.80;;;6.80;99.90;;;;;;6245961;23;20075;-75
2022/04/09 00:38:33;;;;;;;16.83;3.90;;;6.70;99.90;;;;;;6245781;23;20028;-75
2022/04/09 00:40:59;;;;;;;20.52;3.88;;;6.70;99.90;;;;;;6244078;23;19996;-75
2022/04/09 00:43:24;;;;;;;15.45;3.63;;;6.70;99.90;;;;;;6245556;23;20019;-75
2022/04/09 00:45:51;;;;;;;15.57;3.47;;;6.70;99.90;;;;;;6244119;23;20002;-75
2022/04/09 00:48:20;;;;;;;19.10;3.67;;;6.70;99.90;;;;;;6243505;23;20008;-75
2022/04/09 00:50:47;;;;;;;17.02;4.15;;;6.60;99.90;;;;;;6246125;22;20406;-75
2022/04/09 00:53:15;;;;;;;16.40;3.47;;;6.50;99.90;;;;;;6244977;22;20000;-75
2022/04/09 00:58:28;;;;;;;10.80;3.85;;;6.50;99.90;;;;;;6244899;23;20070;-76
2022/04/09 01:00:54;;;;;;;19.98;3.97;;;6.50;99.90;;;;;;6244040;22;20000;-76
2022/04/09 01:03:20;;;;;;;20.58;4.20;;;6.50;99.90;;;;;;6245420;23;20059;-78
2022/04/09 01:05:48;;;;;;;17.35;3.92;;;6.40;99.90;;;;;;6245971;22;20031;-78
2022/04/09 01:08:14;;;;;;;18.63;4.45;;;6.40;99.90;;;;;;6245740;22;20012;-77
2022/04/09 01:10:40;;;;;;;27.35;4.97;;;6.40;99.90;;;;;;6245794;22;20000;-76
2022/04/09 01:13:06;;;;;;;14.23;3.88;;;6.50;99.90;;;;;;6246109;23;20375;-76
2022/04/09 01:15:32;;;;;;;18.65;4.15;;;6.50;99.90;;;;;;6268967;22;20004;-76
2022/04/09 01:18:00;;;;;;;14.45;3.60;;;6.50;99.90;;;;;;6244007;23;20513;-76
2022/04/09 01:20:26;;;;;;;17.00;4.30;;;6.50;99.90;;;;;;6245900;22;20004;-76
2022/04/09 01:22:52;;;;;;;25.63;4.18;;;6.40;99.90;;;;;;6245362;22;20015;-76
2022/04/09 01:25:18;;;;;;;17.92;4.65;;;6.40;99.90;;;;;;6245383;22;20008;-76
2022/04/09 01:27:47;;;;;;;22.10;4.85;;;6.50;99.90;;;;;;6243378;22;20000;-76
2022/04/09 01:30:13;;;;;;;21.52;5.13;;;6.50;99.90;;;;;;6245177;22;20024;-76
2022/04/09 01:32:39;;;;;;;20.55;4.13;;;6.50;99.90;;;;;;6243922;22;19996;-76
2022/04/09 01:35:05;;;;;;;20.08;4.53;;;6.40;99.90;;;;;;6244838;22;20053;-75
2022/04/09 01:37:31;;;;;;;17.60;4.47;;;6.40;99.90;;;;;;6245705;22;20368;-76
2022/04/09 01:39:57;;;;;;;17.33;4.00;;;6.40;99.90;;;;;;6243321;22;20030;-76
2022/04/09 01:42:26;;;;;;;18.17;4.30;;;6.40;99.90;;;;;;6244929;23;20004;-75
2022/04/09 01:44:52;;;;;;;17.02;4.35;;;6.40;99.90;;;;;;6243687;22;20008;-76
2022/04/09 01:47:18;;;;;;;20.58;4.43;;;6.40;99.90;;;;;;6245491;22;20010;-75
2022/04/09 01:49:43;;;;;;;23.63;5.30;;;6.40;99.90;;;;;;6245141;23;20373;-76
2022/04/09 01:52:09;;;;;;;17.95;4.45;;;6.40;99.90;;;;;;6245037;23;20023;-75
2022/04/09 01:54:34;;;;;;;20.42;4.05;;;6.30;99.90;;;;;;6243202;23;20365;-76
2022/04/09 01:57:00;;;;;;;21.20;3.60;;;6.20;99.90;;;;;;6244865;23;20000;-76
2022/04/09 01:59:26;;;;;;;20.38;3.92;;;6.20;99.90;;;;;;6243166;23;20008;-76
2022/04/09 02:01:52;;;;;;;21.65;4.25;;;6.30;99.90;;;;;;6245245;22;20000;-76
2022/04/09 02:04:17;;;;;;;18.80;4.82;;;6.30;99.90;;;;;;6244525;23;20012;-76
2022/04/09 02:06:44;;;;;;;18.38;4.63;;;6.30;99.90;;;;;;6245178;23;20068;-76
2022/04/09 02:09:11;;;;;;;17.05;4.18;;;6.30;99.90;;;;;;6243605;22;20014;-77
2022/04/09 02:11:41;;;;;;;14.45;4.20;;;6.20;99.90;;;;;;6244754;22;20035;-76
2022/04/09 02:14:09;;;;;;;19.77;5.18;;;6.10;99.90;;;;;;6244123;23;20514;-76
2022/04/09 02:16:35;;;;;;;20.85;4.70;;;6.10;99.90;;;;;;6248498;22;20023;-75
2022/04/09 02:19:02;;;;;;;22.17;4.20;;;6.10;99.90;;;;;;6249231;22;20007;-75
2022/04/09 02:21:27;;;;;;;19.25;4.88;;;6.00;99.90;;;;;;6243270;22;20071;-76
2022/04/09 02:23:53;;;;;;;17.02;4.25;;;6.00;99.90;;;;;;6244817;22;20447;-77
2022/04/09 02:26:19;;;;;;;24.92;4.68;;;6.00;99.90;;;;;;6244672;23;20000;-76
2022/04/09 02:28:47;;;;;;;19.65;4.57;;;6.00;99.90;;;;;;6242742;22;20437;-75
2022/04/09 02:31:15;;;;;;;18.65;4.18;;;6.00;99.90;;;;;;6243063;23;19997;-76
2022/04/09 02:33:41;;;;;;;23.98;4.47;;;6.00;99.90;;;;;;6245936;22;20008;-76
2022/04/09 02:36:11;;;;;;;25.00;4.88;;;5.90;99.90;;;;;;6244838;22;20057;-77
2022/04/09 02:38:40;;;;;;;24.85;4.90;;;6.00;99.90;;;;;;6244868;22;20211;-76
2022/04/09 02:41:08;;;;;;;23.60;4.28;;;5.90;99.90;;;;;;6245261;23;20007;-76
2022/04/09 02:43:35;;;;;;;19.52;4.28;;;5.90;99.90;;;;;;6245310;22;20012;-76
2022/04/09 02:46:00;;;;;;;25.40;4.15;;;5.90;99.90;;;;;;6246643;22;20000;-76
2022/04/09 02:48:26;;;;;;;24.42;4.55;;;6.00;99.90;;;;;;6245476;23;20450;-77
2022/04/09 02:50:52;;;;;;;14.77;4.50;;;6.00;99.90;;;;;;6246488;22;20031;-75
2022/04/09 02:53:17;;;;;;;17.15;4.10;;;5.90;99.90;;;;;;6247101;23;20448;-76
2022/04/09 02:55:43;;;;;;;18.63;3.55;;;5.90;99.90;;;;;;6244515;23;20004;-76
2022/04/09 02:58:09;;;;;;;14.77;4.05;;;6.10;99.90;;;;;;6246404;23;20000;-76
2022/04/09 03:00:35;;;;;;;20.42;3.60;;;6.10;99.90;;;;;;6245173;22;20000;-76
2022/04/09 03:03:00;;;;;;;22.55;3.72;;;6.10;99.90;;;;;;6246647;23;20012;-76
2022/04/09 03:05:26;;;;;;;24.50;3.85;;;6.20;99.90;;;;;;6245938;23;20430;-76
2022/04/09 03:07:51;;;;;;;19.58;3.88;;;6.10;99.90;;;;;;6245645;23;20000;-76
2022/04/09 03:10:17;;;;;;;13.90;3.50;;;6.10;99.90;;;;;;6246474;23;20012;-76
2022/04/09 03:12:44;;;;;;;17.33;3.58;;;6.10;99.90;;;;;;6246751;23;20330;-76
2022/04/09 03:15:10;;;;;;;23.45;4.22;;;6.10;99.90;;;;;;6246507;22;20871;-77
2022/04/09 03:17:36;;;;;;;13.40;3.35;;;6.00;99.90;;;;;;6247034;22;20026;-76
2022/04/09 03:20:02;;;;;;;21.08;3.70;;;6.00;99.90;;;;;;6246495;23;20008;-76
2022/04/09 03:22:28;;;;;;;19.75;4.40;;;6.10;99.90;;;;;;6246718;22;20488;-76
2022/04/09 03:25:02;;;;;;;18.08;3.78;;;6.10;99.90;;;;;;6244261;22;20078;-76
2022/04/09 03:27:28;;;;;;;19.90;3.83;;;6.20;99.90;;;;;;6246633;22;20004;-76
2022/04/09 03:29:54;;;;;;;18.67;3.85;;;6.10;99.90;;;;;;6247460;22;20423;-76
2022/04/09 03:32:21;;;;;;;21.88;3.78;;;6.10;99.90;;;;;;6246763;22;20031;-76
2022/04/09 03:34:46;;;;;;;22.27;4.35;;;6.10;99.90;;;;;;6244582;22;20031;-76
2022/04/09 03:37:12;;;;;;;21.65;4.82;;;6.10;99.90;;;;;;6246214;22;20047;-76
2022/04/09 03:39:38;;;;;;;22.33;3.97;;;6.00;99.90;;;;;;6245066;23;20083;-75
2022/04/09 03:42:05;;;;;;;22.58;3.65;;;6.10;99.90;;;;;;6245419;22;20295;-75
2022/04/09 03:44:31;;;;;;;22.88;4.40;;;6.00;99.90;;;;;;6245142;22;20018;-76
2022/04/09 03:46:58;;;;;;;15.95;3.97;;;5.90;99.90;;;;;;6245556;23;20028;-76
2022/04/09 03:49:24;;;;;;;20.35;3.92;;;6.00;99.90;;;;;;6246738;22;20005;-76
2022/04/09 03:51:49;;;;;;;23.85;3.60;;;5.90;99.90;;;;;;6246002;22;20299;-75
2022/04/09 03:54:15;;;;;;;21.27;3.50;;;5.90;99.90;;;;;;6245873;23;20079;-76
2022/04/09 03:56:43;;;;;;;20.40;3.65;;;5.90;99.90;;;;;;6244227;23;19997;-76
2022/04/09 03:59:09;;;;;;;19.75;3.78;;;5.90;99.90;;;;;;6246151;22;20066;-76
2022/04/09 04:01:35;;;;;;;23.90;3.72;;;5.90;99.90;;;;;;6246728;22;20322;-76
2022/04/09 04:04:01;;;;;;;12.32;3.28;;;5.90;99.90;;;;;;6246214;22;20012;-77
2022/04/09 04:06:27;;;;;;;19.80;3.55;;;6.00;99.90;;;;;;6244882;23;20001;-77
2022/04/09 04:08:55;;;;;;;20.30;4.05;;;5.90;99.90;;;;;;6246290;22;20012;-76
2022/04/09 04:11:21;;;;;;;23.77;4.22;;;6.00;99.90;;;;;;6245858;22;20003;-76
2022/04/09 04:13:48;;;;;;;17.35;3.40;;;5.80;99.90;;;;;;6246450;22;20012;-76
2022/04/09 04:16:13;;;;;;;11.95;3.70;;;5.80;99.90;;;;;;6244362;22;20026;-76
2022/04/09 04:18:39;;;;;;;15.57;3.50;;;5.90;99.90;;;;;;6246128;23;20004;-76
2022/04/09 04:21:05;;;;;;;18.30;3.58;;;5.90;99.90;;;;;;6246851;23;20008;-76
2022/04/09 04:23:31;;;;;;;18.58;3.83;;;5.90;99.90;;;;;;6245637;23;20015;-76
2022/04/09 04:25:56;;;;;;;18.95;3.15;;;5.80;99.90;;;;;;6244551;23;20001;-75
2022/04/09 04:28:22;;;;;;;18.10;3.92;;;5.90;99.90;;;;;;6245655;23;20079;-76
2022/04/09 04:30:47;;;;;;;18.48;4.00;;;5.90;99.90;;;;;;6243198;23;20341;-75
2022/04/09 04:33:13;;;;;;;14.57;3.00;;;5.90;99.90;;;;;;6245267;23;20027;-76
2022/04/09 04:35:38;;;;;;;18.77;3.42;;;6.00;99.90;;;;;;6245575;23;20016;-76
2022/04/09 04:38:04;;;;;;;18.17;3.25;;;5.90;99.90;;;;;;6244195;23;20390;-76
2022/04/09 04:40:30;;;;;;;17.80;3.83;;;5.80;99.90;;;;;;6246894;23;20000;-76
2022/04/09 04:42:55;;;;;;;22.35;3.90;;;5.80;99.90;;;;;;6249308;23;20452;-76
2022/04/09 04:45:22;;;;;;;17.70;4.15;;;5.70;99.90;;;;;;6247770;23;20004;-76
2022/04/09 04:47:49;;;;;;;18.67;3.97;;;5.70;99.90;;;;;;6246290;22;20023;-75
2022/04/09 04:50:16;;;;;;;27.05;4.45;;;5.60;99.90;;;;;;6245496;22;20004;-77
2022/04/09 04:52:42;;;;;;;20.40;3.90;;;5.60;99.90;;;;;;6244034;22;20487;-75
2022/04/09 04:55:09;;;;;;;16.33;4.00;;;5.60;99.90;;;;;;6245252;22;20008;-76
2022/04/09 04:57:46;;;;;;;23.92;4.43;;;5.60;99.90;;;;;;6244683;22;20004;-75
2022/04/09 05:00:15;;;;;;;15.32;4.25;;;5.60;99.90;;;;;;6245024;22;20008;-76
2022/04/09 05:02:41;;;;;;;14.80;4.43;;;5.60;99.90;;;;;;6245565;23;20011;-76
2022/04/09 05:05:07;;;;;;;29.35;5.03;;;5.60;99.90;;;;;;6243409;23;20333;-76
2022/04/09 05:07:42;;;;;;;20.08;4.15;;;5.60;99.90;;;;;;6245146;22;20000;-76
2022/04/09 05:10:22;;;;;;;28.55;5.03;;;5.60;99.90;;;;;;6243881;22;20070;-76
2022/04/09 05:12:48;;;;;;;26.02;4.78;;;5.70;99.90;;;;;;6245429;22;20410;-76
2022/04/09 05:15:15;;;;;;;23.25;5.63;;;5.60;99.90;;;;;;6245607;22;20483;-76
2022/04/09 05:17:42;;;;;;;20.50;4.10;;;5.70;99.90;;;;;;6245743;22;20516;-75
2022/04/09 05:20:14;;;;;;;17.88;5.43;;;5.80;99.90;;;;;;6245550;22;20061;-77
2022/04/09 05:22:43;;;;;;;23.27;4.47;;;5.80;99.90;;;;;;6244058;22;20042;-76
2022/04/09 05:25:10;;;;;;;24.65;5.30;;;5.60;99.90;;;;;;6245520;22;20436;-77
2022/04/09 05:27:37;;;;;;;23.83;6.45;;;5.60;99.90;;;;;;6243684;22;19997;-76
2022/04/09 05:30:04;;;;;;;18.15;5.20;;;5.60;99.90;;;;;;6245327;22;20010;-75
2022/04/09 05:32:30;;;;;;;24.42;5.22;;;5.70;99.90;;;;;;6245470;22;20094;-76
2022/04/09 05:34:56;;;;;;;26.20;5.80;;;5.70;99.90;;;;;;6245501;23;20421;-76
2022/04/09 05:37:22;;;;;;;20.58;6.07;;;5.60;99.90;;;;;;6243229;22;20405;-75
2022/04/09 05:39:47;;;;;;;26.38;6.68;;;5.70;99.90;;;;;;6245029;23;20448;-76
2022/04/09 05:42:13;;;;;;;22.17;6.07;;;5.80;99.90;;;;;;6243687;23;20015;-76
2022/04/09 05:44:39;;;;;;;21.25;5.22;;;5.90;99.90;;;;;;6242600;23;20041;-76
2022/04/09 05:47:05;;;;;;;23.98;6.47;;;5.90;99.90;;;;;;6244481;22;20383;-74
2022/04/09 05:49:31;;;;;;;22.00;5.85;;;5.90;99.90;;;;;;6243397;23;20483;-76
2022/04/09 05:51:57;;;;;;;26.27;6.22;;;5.90;99.90;;;;;;6244473;22;19996;-76
2022/04/09 05:54:24;;;;;;;30.63;6.30;;;6.00;99.90;;;;;;6244347;22;20317;-77
2022/04/09 05:56:49;;;;;;;24.05;5.55;;;6.00;99.90;;;;;;6244139;22;20071;-75
2022/04/09 05:59:15;;;;;;;29.42;7.45;;;6.00;99.90;;;;;;6245010;23;20032;-75
2022/04/09 06:01:40;;;;;;;22.70;6.65;;;6.00;99.90;;;;;;6243318;23;20004;-75
2022/04/09 06:04:07;;;;;;;25.55;6.15;;;6.10;99.90;;;;;;6242479;23;20040;-74
2022/04/09 06:06:33;;;;;;;24.13;6.93;;;6.20;99.90;;;;;;6244907;22;20325;-75
2022/04/09 06:08:58;;;;;;;19.52;5.55;;;6.20;99.90;;;;;;6244800;23;20000;-75
2022/04/09 06:11:24;;;;;;;19.65;6.15;;;6.20;99.90;;;;;;6242533;22;20329;-75
2022/04/09 06:13:50;;;;;;;24.27;6.63;;;6.20;99.90;;;;;;6244726;22;20267;-75
2022/04/09 06:16:16;;;;;;;17.83;5.95;;;6.30;99.90;;;;;;6242152;23;20421;-75
2022/04/09 06:18:42;;;;;;;26.15;6.85;;;6.20;99.90;;;;;;6244925;22;20000;-76
2022/04/09 06:21:08;;;;;;;22.73;5.53;;;6.30;99.90;;;;;;6245608;22;20012;-75
2022/04/09 06:23:34;;;;;;;19.17;6.00;;;6.40;99.90;;;;;;6245181;22;20046;-76
2022/04/09 06:26:00;;;;;;;32.97;8.07;;;6.50;99.90;;;;;;6244609;22;19996;-75
2022/04/09 06:28:26;;;;;;;25.58;7.25;;;6.50;99.90;;;;;;6245132;23;20008;-75
2022/04/09 06:30:52;;;;;;;20.65;5.80;;;6.60;99.90;;;;;;6244061;22;20381;-75
2022/04/09 06:33:18;;;;;;;16.63;5.53;;;6.50;99.90;;;;;;6243555;22;20028;-75
2022/04/09 06:35:44;;;;;;;22.60;6.00;;;6.60;99.90;;;;;;6245808;22;20085;-76
2022/04/09 06:38:09;;;;;;;16.80;4.38;;;6.60;99.90;;;;;;6241733;23;20078;-74
2022/04/09 06:40:35;;;;;;;21.10;4.90;;;6.60;99.90;;;;;;6243081;23;19996;-75
2022/04/09 06:43:01;;;;;;;19.23;4.30;;;6.70;99.90;;;;;;6244421;23;20004;-73
2022/04/09 06:45:27;;;;;;;13.40;4.75;;;6.80;99.90;;;;;;6242259;23;20059;-74
2022/04/09 06:47:52;;;;;;;16.13;4.05;;;7.00;99.90;;;;;;6243313;23;20436;-74
2022/04/09 06:50:18;;;;;;;15.23;3.45;;;7.00;99.90;;;;;;6243686;23;20074;-74
2022/04/09 06:52:45;;;;;;;14.75;3.70;;;7.10;99.90;;;;;;6244348;23;20031;-74
2022/04/09 06:55:11;;;;;;;17.13;4.30;;;7.20;99.90;;;;;;6242254;22;20353;-75
2022/04/09 06:57:38;;;;;;;11.77;3.40;;;7.20;99.90;;;;;;6244152;22;20024;-75
2022/04/09 07:00:07;;;;;;;10.02;2.85;;;7.30;99.90;;;;;;6242986;22;20429;-76
2022/04/09 07:02:34;;;;;;;9.93;3.45;;;7.40;99.90;;;;;;6242834;22;20011;-75
2022/04/09 07:05:00;;;;;;;17.73;3.95;;;7.40;99.90;;;;;;6243764;22;20318;-76
2022/04/09 07:07:26;;;;;;;16.58;3.80;;;7.60;99.90;;;;;;6242838;23;20003;-75
2022/04/09 07:10:04;;;;;;;14.65;4.07;;;7.70;99.90;;;;;;6243547;22;20008;-75
2022/04/09 07:12:30;;;;;;;16.08;4.03;;;7.70;99.90;;;;;;6241923;23;20058;-75
2022/04/09 07:14:56;;;;;;;20.35;4.05;;;7.60;99.90;;;;;;6242517;23;20008;-75
2022/04/09 07:17:22;;;;;;;14.98;4.05;;;7.60;99.90;;;;;;6243769;22;20003;-75
2022/04/09 07:19:47;;;;;;;14.88;4.43;;;7.60;99.90;;;;;;6243567;23;20062;-75
2022/04/09 07:22:13;;;;;;;11.05;3.80;;;7.60;99.90;;;;;;6241016;23;20006;-73
2022/04/09 07:24:39;;;;;;;13.77;3.70;;;7.70;99.90;;;;;;6243763;23;20015;-74
2022/04/09 07:27:04;;;;;;;16.85;4.90;;;7.80;99.90;;;;;;6245441;23;19996;-74
2022/04/09 07:29:30;;;;;;;23.27;5.90;;;7.80;99.90;;;;;;6244486;23;20004;-74
2022/04/09 07:31:55;;;;;;;18.08;5.20;;;7.90;99.90;;;;;;6245368;23;20325;-76
2022/04/09 07:34:21;;;;;;;16.80;5.22;;;7.80;99.90;;;;;;6244721;23;19996;-76
2022/04/09 07:36:47;;;;;;;19.80;6.07;;;7.90;99.90;;;;;;6245593;23;20007;-76
2022/04/09 07:39:13;;;;;;;18.02;6.18;;;8.00;99.90;;;;;;6246920;23;20004;-76
2022/04/09 07:41:39;;;;;;;19.58;6.20;;;8.10;99.90;;;;;;6244327;23;20535;-75
2022/04/09 07:44:05;;;;;;;16.70;6.93;;;8.20;99.90;;;;;;6245798;22;20008;-76
2022/04/09 07:46:31;;;;;;;20.00;6.18;;;8.30;99.90;;;;;;6244634;22;20005;-74
2022/04/09 07:48:56;;;;;;;20.10;5.82;;;8.40;99.90;;;;;;6269886;22;20121;-75
2022/04/09 07:51:22;;;;;;;19.23;6.03;;;8.50;99.90;;;;;;6243418;23;20168;-75
2022/04/09 07:53:48;;;;;;;21.92;5.70;;;8.60;99.90;;;;;;6245772;23;20004;-75
2022/04/09 07:56:13;;;;;;;22.80;5.53;;;8.80;99.90;;;;;;6244507;23;20350;-75
2022/04/09 07:58:39;;;;;;;26.02;5.80;;;8.90;99.90;;;;;;6244447;22;20342;-75
2022/04/09 08:01:05;;;;;;;21.77;5.85;;;9.10;99.90;;;;;;6243325;23;19996;-75
2022/04/09 08:03:31;;;;;;;18.17;5.43;;;9.10;99.90;;;;;;6243194;23;20400;-75
2022/04/09 08:05:57;;;;;;;15.60;4.45;;;9.30;99.90;;;;;;6246589;22;20413;-75
2022/04/09 08:08:22;;;;;;;17.27;4.22;;;9.50;99.90;;;;;;6242658;23;20046;-76
2022/04/09 08:10:48;;;;;;;20.40;5.10;;;9.60;99.90;;;;;;6245632;23;20004;-76
2022/04/09 08:13:14;;;;;;;22.20;4.82;;;9.60;99.90;;;;;;6243621;23;20051;-76
2022/04/09 08:15:39;;;;;;;15.18;3.83;;;9.70;99.90;;;;;;6245620;22;20004;-75
2022/04/09 08:18:06;;;;;;;17.88;3.72;;;9.80;99.90;;;;;;6245789;23;20075;-75
2022/04/09 08:20:32;;;;;;;14.30;4.22;;;9.90;99.90;;;;;;6243494;22;20030;-75
2022/04/09 08:22:59;;;;;;;31.30;5.47;;;10.00;99.90;;;;;;6243001;22;20075;-76
2022/04/09 08:25:25;;;;;;;14.80;4.40;;;10.00;99.90;;;;;;6244079;22;20024;-75
2022/04/09 08:27:52;;;;;;;17.75;4.15;;;9.90;99.90;;;;;;6244690;22;20495;-75
2022/04/09 08:30:19;;;;;;;13.68;4.22;;;10.10;99.90;;;;;;6245232;22;20004;-75
2022/04/09 08:32:45;;;;;;;16.95;3.45;;;10.20;99.90;;;;;;6243001;22;20035;-75
2022/04/09 08:35:11;;;;;;;17.25;4.25;;;10.10;99.90;;;;;;6245295;23;20000;-75
2022/04/09 08:37:38;;;;;;;17.35;3.92;;;10.10;99.90;;;;;;6243342;22;20027;-75
2022/04/09 08:40:04;;;;;;;18.35;3.85;;;10.00;99.90;;;;;;6244037;22;20057;-75
2022/04/09 08:42:30;;;;;;;16.48;3.47;;;10.20;99.90;;;;;;6244781;22;20402;-75
2022/04/09 08:44:59;;;;;;;12.38;3.83;;;10.50;99.90;;;;;;6245171;22;20406;-75
2022/04/09 08:47:28;;;;;;;16.75;4.07;;;10.60;99.90;;;;;;6245014;22;20007;-75
2022/04/09 08:49:54;;;;;;;12.07;3.88;;;10.70;99.90;;;;;;6245747;22;20074;-75
2022/04/09 08:52:21;;;;;;;11.77;3.42;;;10.60;99.90;;;;;;6243181;22;20007;-75
2022/04/09 08:54:47;;;;;;;9.70;3.88;;;10.90;99.90;;;;;;6244703;22;20007;-75
2022/04/09 08:57:14;;;;;;;10.60;3.90;;;10.80;99.90;;;;;;6244671;22;20007;-75
2022/04/09 08:59:40;;;;;;;10.48;3.00;;;10.60;99.90;;;;;;6243731;23;20341;-75
2022/04/09 09:02:06;;;;;;;12.65;3.58;;;10.70;99.90;;;;;;6245248;23;20004;-74
2022/04/09 09:04:32;;;;;;;13.10;3.65;;;10.70;99.90;;;;;;6267917;22;20012;-75
2022/04/09 09:07:20;;;;;;;14.35;3.88;;;10.80;99.90;;;;;;6245076;22;20006;-74
2022/04/09 09:09:46;;;;;;;11.02;3.10;;;10.70;99.90;;;;;;6242932;22;20000;-73
2022/04/09 09:12:25;;;;;;;13.82;3.50;;;10.80;99.90;;;;;;6244565;22;20253;-74
2022/04/09 09:14:51;;;;;;;13.02;3.25;;;10.90;99.90;;;;;;6243319;22;20031;-74
2022/04/09 09:17:26;;;;;;;9.80;3.20;;;11.00;99.90;;;;;;6243472;23;20003;-74
2022/04/09 09:19:52;;;;;;;14.57;3.35;;;11.20;99.90;;;;;;6244618;22;20456;-74
2022/04/09 09:22:19;;;;;;;11.02;2.60;;;11.10;99.90;;;;;;6242977;23;20000;-74
2022/04/09 09:25:07;;;;;;;11.60;2.47;;;11.00;99.90;;;;;;6244089;22;20019;-75
2022/04/09 09:27:32;;;;;;;11.05;3.08;;;11.10;99.90;;;;;;6242284;23;20027;-74
2022/04/09 09:29:58;;;;;;;8.90;2.63;;;11.30;99.90;;;;;;6243915;22;20326;-75
2022/04/09 09:32:25;;;;;;;12.30;2.60;;;11.30;99.90;;;;;;6245202;23;20087;-75
2022/04/09 09:34:55;;;;;;;12.80;3.17;;;11.30;99.90;;;;;;6244850;22;20004;-75
2022/04/09 09:37:23;;;;;;;6.57;2.45;;;11.30;99.90;;;;;;6243138;22;20096;-76
2022/04/09 09:39:50;;;;;;;10.75;3.05;;;11.30;99.90;;;;;;6244158;22;20008;-75
2022/04/09 09:42:20;;;;;;;11.18;2.85;;;11.00;99.90;;;;;;6242885;22;19996;-76
2022/04/09 09:44:45;;;;;;;11.90;2.45;;;10.90;99.90;;;;;;6243751;22;20012;-76
2022/04/09 09:47:20;;;;;;;9.63;2.38;;;10.80;99.90;;;;;;6245259;23;20302;-76
2022/04/09 09:49:56;;;;;;;9.48;2.47;;;11.20;99.90;;;;;;6242293;23;20071;-76
2022/04/09 09:52:30;;;;;;;5.60;1.80;;;11.00;99.90;;;;;;6243120;23;20051;-76
2022/04/09 09:55:14;;;;;;;6.97;2.42;;;11.20;99.90;;;;;;6244661;22;20071;-76
2022/04/09 09:57:40;;;;;;;8.57;2.08;;;11.60;99.90;;;;;;6243215;22;19996;-76
2022/04/09 10:00:10;;;;;;;6.50;2.13;;;11.90;99.90;;;;;;6244627;22;20064;-76
2022/04/09 10:02:38;;;;;;;8.10;1.85;;;12.00;99.90;;;;;;6243149;22;20322;-76
2022/04/09 10:05:05;;;;;;;7.35;2.08;;;12.00;99.90;;;;;;6244782;22;20004;-77
2022/04/09 10:07:30;;;;;;;6.18;2.20;;;12.10;99.90;;;;;;6242703;22;20004;-77
2022/04/09 10:09:56;;;;;;;6.75;1.83;;;12.00;99.90;;;;;;6242881;23;20008;-76
2022/04/09 10:12:24;;;;;;;6.32;1.50;;;12.10;99.90;;;;;;6245049;23;20330;-75
2022/04/09 10:14:58;;;;;;;9.13;1.70;;;12.10;99.90;;;;;;6242491;22;20059;-76
2022/04/09 10:17:24;;;;;;;4.95;1.40;;;12.00;99.90;;;;;;6244654;22;20357;-75
2022/04/09 10:19:55;;;;;;;8.60;1.90;;;11.80;99.90;;;;;;6244111;22;20013;-75
2022/04/09 10:22:27;;;;;;;6.07;2.00;;;12.00;99.90;;;;;;6242538;22;20401;-76
2022/04/09 10:24:55;;;;;;;8.65;1.77;;;12.30;99.90;;;;;;6244212;22;20050;-76
2022/04/09 10:27:38;;;;;;;4.63;1.17;;;12.50;99.90;;;;;;6242910;22;20000;-77
2022/04/09 10:30:09;;;;;;;;;;;12.70;99.90;;;;;;6245028;22;20061;-73
2022/04/09 10:32:46;;;;;;;4.82;1.48;;;12.90;99.90;;;;;;6242264;23;19906;-76
2022/04/09 10:35:28;;;;;;;2.65;1.00;;;13.00;99.90;;;;;;6244503;22;20456;-76
2022/04/09 10:40:35;;;;;;;3.83;1.02;;;13.20;99.90;;;;;;6242552;23;20012;-76
2022/04/09 10:43:02;;;;;;;4.32;1.33;;;13.00;99.90;;;;;;6243961;22;20032;-76
2022/04/09 10:45:32;;;;;;;6.35;1.83;;;12.90;98.20;;;;;;6243785;22;20004;-76
2022/04/09 10:48:11;;;;;;;4.32;1.23;;;13.30;99.20;;;;;;6244163;22;20000;-77
2022/04/09 10:50:53;;;;;;;2.63;0.95;;;13.20;97.50;;;;;;6243797;22;20008;-76
2022/04/09 10:53:22;;;;;;;4.88;1.15;;;13.30;99.90;;;;;;6244742;22;20012;-76
2022/04/09 10:56:10;;;;;;;3.40;1.30;;;13.60;98.00;;;;;;6245086;22;20354;-76
2022/04/09 10:59:13;;;;;;;3.92;1.40;;;13.80;98.50;;;;;;6243229;22;20087;-74
2022/04/09 11:01:50;;;;;;;3.00;1.20;;;14.10;99.00;;;;;;6243252;23;20008;-75
2022/04/09 11:07:35;;;;;;;2.72;1.10;;;14.10;95.90;;;;;;6245501;23;20004;-75
2022/04/09 11:10:03;;;;;;;3.55;1.10;;;14.10;95.90;;;;;;6216627;23;20378;-76
2022/04/09 11:12:38;;;;;;;5.57;1.60;;;13.90;95.90;;;;;;6244305;22;20004;-75
2022/04/09 11:15:09;;;;;;;2.40;1.15;;;14.00;96.80;;;;;;6244786;23;20031;-75
2022/04/09 11:17:48;;;;;;;2.85;0.90;;;14.10;94.90;;;;;;6268236;22;20003;-75
2022/04/09 11:20:18;;;;;;;3.83;1.13;;;14.20;98.20;;;;;;6246312;22;20555;-75
2022/04/09 11:22:47;;;;;;;2.10;1.10;;;14.20;95.50;;;;;;6245706;22;20080;-76
2022/04/09 11:25:30;;;;;;;3.80;1.10;;;13.90;94.10;;;;;;6245973;22;20469;-76
2022/04/09 11:28:07;;;;;;;2.70;1.35;;;14.10;96.30;;;;;;6243187;23;20062;-75
2022/04/09 11:30:33;;;;;;;6.22;1.17;;;14.50;98.00;;;;;;6245402;22;20325;-74
2022/04/09 11:32:59;;;;;;;3.92;0.65;;;14.30;95.30;;;;;;6246078;23;19996;-75
2022/04/09 11:35:25;;;;;;;5.90;1.00;;;14.20;96.70;;;;;;6243894;22;20004;-75
2022/04/09 11:37:52;;;;;;;2.28;1.10;;;13.90;96.00;;;;;;6244581;22;20425;-75
2022/04/09 11:40:20;;;;;;;4.55;0.80;;;13.70;96.20;;;;;;6246104;22;20004;-75
2022/04/09 11:42:49;;;;;;;2.05;0.63;;;13.30;97.80;;;;;;6245809;22;20000;-76
2022/04/09 11:45:26;;;;;;;3.22;0.82;;;12.90;99.90;;;;;;6242916;22;20497;-76
2022/04/09 11:48:00;;;;;;;2.65;1.02;;;12.50;99.90;;;;;;6244656;22;20071;-76
2022/04/09 11:50:33;;;;;;;2.58;1.10;;;12.40;99.90;;;;;;6245323;23;20012;-76
2022/04/09 11:53:15;;;;;;;4.03;1.10;;;12.40;99.90;;;;;;6244983;22;20016;-76
2022/04/09 11:55:42;;;;;;;6.10;0.80;;;12.50;99.90;;;;;;6242489;22;20000;-75
2022/04/09 11:58:08;;;;;;;4.75;0.90;;;12.40;99.90;;;;;;6244878;22;20000;-75
2022/04/09 12:00:41;;;;;;;4.00;0.82;;;12.40;99.90;;;;;;6243680;23;20035;-75
2022/04/09 12:03:07;;;;;;;4.35;0.95;;;12.20;97.20;;;;;;6243453;23;20453;-75
2022/04/09 12:05:37;;;;;;;5.55;0.52;;;12.10;99.10;;;;;;6245622;23;20372;-74
2022/04/09 12:08:05;;;;;;;4.05;1.20;;;12.40;98.30;;;;;;6244180;23;20008;-73
2022/04/09 12:10:31;;;;;;;1.58;0.70;;;12.60;98.20;;;;;;6243768;23;20007;-73
2022/04/09 12:13:01;;;;;;;2.58;0.68;;;12.50;97.90;;;;;;6244168;23;20001;-73
2022/04/09 12:15:36;;;;;;;3.50;0.80;;;12.40;98.50;;;;;;6243892;23;20296;-74
2022/04/09 12:18:06;;;;;;;2.60;0.93;;;12.80;96.40;;;;;;6218086;23;20011;-73
2022/04/09 12:20:37;;;;;;;4.80;1.30;;;12.80;98.60;;;;;;6242692;23;20004;-73
2022/04/09 12:23:05;;;;;;;9.25;1.23;;;13.00;96.90;;;;;;6244846;23;20067;-74
2022/04/09 12:25:34;;;;;;;2.85;0.90;;;12.80;96.60;;;;;;6245121;23;20004;-73
2022/04/09 12:27:59;;;;;;;1.10;0.80;;;12.60;95.80;;;;;;6243297;23;20087;-73
2022/04/09 12:30:47;;;;;;;5.65;1.45;;;12.60;98.00;;;;;;6244789;23;20393;-73
2022/04/09 12:33:13;;;;;;;2.25;1.00;;;12.40;96.40;;;;;;6244410;23;20000;-72
2022/04/09 12:35:40;;;;;;;5.93;1.17;;;12.30;96.20;;;;;;6245254;23;20008;-73
2022/04/09 12:38:06;;;;;;;2.33;0.95;;;12.20;98.10;;;;;;6243334;23;20376;-72
2022/04/09 12:40:32;;;;;;;1.70;0.65;;;12.40;97.40;;;;;;6244910;23;20321;-72
2022/04/09 12:43:00;;;;;;;3.50;1.30;;;12.50;97.50;;;;;;6243767;23;20004;-72
2022/04/09 12:45:28;;;;;;;2.35;0.77;;;12.70;97.90;;;;;;6245105;23;20321;-73
2022/04/09 12:48:01;;;;;;;1.67;0.82;;;12.60;96.00;;;;;;6243761;23;20433;-72
2022/04/09 12:50:33;;;;;;;5.50;1.58;;;12.70;98.70;;;;;;6243393;23;20008;-72
2022/04/09 12:53:01;;;;;;;2.67;1.27;;;13.00;98.30;;;;;;6243999;23;20063;-73
2022/04/09 12:55:27;;;;;;;4.88;0.73;;;13.30;98.20;;;;;;6242481;23;20011;-72
2022/04/09 12:57:54;;;;;;;4.07;1.08;;;13.50;96.60;;;;;;6245550;23;20504;-72